sensor_id;sensor_type;location;lat;lon;timestamp;P1;durP1;ratioP1;P2;durP2;ratioP2
21675;SDS011;10999;51.332;9.458;2023-02-24T00:01:26;21.38;;;7.30;;
21675;SDS011;10999;51.332;9.458;2023-02-24T00:03:56;19.63;;;7.13;;
21675;SDS011;10999;51.332;9.458;2023-02-24T00:06:25;22.77;;;8.90;;
21675;SDS011;10999;51.332;9.458;2023-02-24T00:09:05;26.65;;;8.07;;
21675;SDS011;10999;51.332;9.458;2023-02-24T00:11:35;26.20;;;8.50;;
21675;SDS011;10999;51.332;9.458;2023-02-24T00:14:04;22.77;;;7.60;;
21675;SDS011;10999;51.332;9.458;2023-02-24T00:16:32;23.98;;;8.13;;
21675;SDS011;10999;51.332;9.458;2023-02-24T00:19:00;26.23;;;8.10;;
21675;SDS011;10999;51.332;9.458;2023-02-24T00:21:27;22.33;;;7.70;;
21675;SDS011;10999;51.332;9.458;2023-02-24T00:23:54;28.30;;;8.73;;
21675;SDS011;10999;51.332;9.458;2023-02-24T00:26:25;26.73;;;8.48;;
21675;SDS011;10999;51.332;9.458;2023-02-24T00:28:52;25.20;;;8.50;;
21675;SDS011;10999;51.332;9.458;2023-02-24T00:31:18;27.75;;;8.13;;
21675;SDS011;10999;51.332;9.458;2023-02-24T00:33:49;21.60;;;7.00;;
21675;SDS011;10999;51.332;9.458;2023-02-24T00:36:19;19.73;;;6.75;;
21675;SDS011;10999;51.332;9.458;2023-02-24T00:38:50;22.15;;;7.03;;
21675;SDS011;10999;51.332;9.458;2023-02-24T00:43:55;18.08;;;5.65;;
21675;SDS011;10999;51.332;9.458;2023-02-24T00:46:24;16.20;;;6.15;;
21675;SDS011;10999;51.332;9.458;2023-02-24T00:48:52;18.35;;;5.90;;
21675;SDS011;10999;51.332;9.458;2023-02-24T00:51:21;16.27;;;6.18;;
21675;SDS011;10999;51.332;9.458;2023-02-24T00:53:53;16.33;;;6.45;;
21675;SDS011;10999;51.332;9.458;2023-02-24T00:56:24;17.35;;;6.07;;
21675;SDS011;10999;51.332;9.458;2023-02-24T00:58:53;19.40;;;5.55;;
21675;SDS011;10999;51.332;9.458;2023-02-24T01:01:22;18.00;;;6.13;;
21675;SDS011;10999;51.332;9.458;2023-02-24T01:03:51;21.58;;;6.13;;
21675;SDS011;10999;51.332;9.458;2023-02-24T01:06:21;18.38;;;5.93;;
21675;SDS011;10999;51.332;9.458;2023-02-24T01:08:50;16.80;;;6.03;;
21675;SDS011;10999;51.332;9.458;2023-02-24T01:11:20;21.23;;;6.32;;
21675;SDS011;10999;51.332;9.458;2023-02-24T01:14:10;16.95;;;5.95;;
21675;SDS011;10999;51.332;9.458;2023-02-24T01:16:40;19.05;;;5.97;;
21675;SDS011;10999;51.332;9.458;2023-02-24T01:19:07;21.33;;;6.75;;
21675;SDS011;10999;51.332;9.458;2023-02-24T01:21:34;19.80;;;6.05;;
21675;SDS011;10999;51.332;9.458;2023-02-24T01:24:00;20.08;;;6.60;;
21675;SDS011;10999;51.332;9.458;2023-02-24T01:26:27;20.35;;;6.07;;
21675;SDS011;10999;51.332;9.458;2023-02-24T01:28:56;22.45;;;6.18;;
21675;SDS011;10999;51.332;9.458;2023-02-24T01:31:22;15.32;;;5.75;;
21675;SDS011;10999;51.332;9.458;2023-02-24T01:33:50;19.25;;;6.15;;
21675;SDS011;10999;51.332;9.458;2023-02-24T01:36:18;17.65;;;5.20;;
21675;SDS011;10999;51.332;9.458;2023-02-24T01:38:47;14.02;;;4.47;;
21675;SDS011;10999;51.332;9.458;2023-02-24T01:41:15;14.18;;;3.58;;
21675;SDS011;10999;51.332;9.458;2023-02-24T01:43:58;13.13;;;3.28;;
21675;SDS011;10999;51.332;9.458;2023-02-24T01:46:27;14.23;;;3.00;;
21675;SDS011;10999;51.332;9.458;2023-02-24T01:48:56;10.45;;;2.90;;
21675;SDS011;10999;51.332;9.458;2023-02-24T01:51:29;8.98;;;2.03;;
21675;SDS011;10999;51.332;9.458;2023-02-24T01:53:59;7.70;;;2.22;;
21675;SDS011;10999;51.332;9.458;2023-02-24T01:56:28;10.57;;;2.35;;
21675;SDS011;10999;51.332;9.458;2023-02-24T01:58:57;13.00;;;2.97;;
21675;SDS011;10999;51.332;9.458;2023-02-24T02:01:25;12.57;;;2.45;;
21675;SDS011;10999;51.332;9.458;2023-02-24T02:03:56;11.68;;;2.47;;
21675;SDS011;10999;51.332;9.458;2023-02-24T02:06:28;12.70;;;2.47;;
21675;SDS011;10999;51.332;9.458;2023-02-24T02:08:56;12.18;;;2.38;;
21675;SDS011;10999;51.332;9.458;2023-02-24T02:11:22;12.43;;;2.28;;
21675;SDS011;10999;51.332;9.458;2023-02-24T02:13:49;15.40;;;2.75;;
21675;SDS011;10999;51.332;9.458;2023-02-24T02:24:52;17.10;;;3.58;;
21675;SDS011;10999;51.332;9.458;2023-02-24T02:35:18;15.73;;;3.35;;
21675;SDS011;10999;51.332;9.458;2023-02-24T02:40:42;15.45;;;3.80;;
21675;SDS011;10999;51.332;9.458;2023-02-24T02:46:11;11.73;;;2.88;;
21675;SDS011;10999;51.332;9.458;2023-02-24T02:49:35;14.63;;;3.22;;
21675;SDS011;10999;51.332;9.458;2023-02-24T02:52:01;17.35;;;3.33;;
21675;SDS011;10999;51.332;9.458;2023-02-24T02:54:39;16.63;;;3.60;;
21675;SDS011;10999;51.332;9.458;2023-02-24T02:59:42;12.52;;;3.30;;
21675;SDS011;10999;51.332;9.458;2023-02-24T03:02:15;14.75;;;3.58;;
21675;SDS011;10999;51.332;9.458;2023-02-24T03:04:47;13.13;;;3.38;;
21675;SDS011;10999;51.332;9.458;2023-02-24T03:07:18;15.27;;;4.03;;
21675;SDS011;10999;51.332;9.458;2023-02-24T03:09:49;14.90;;;3.28;;
21675;SDS011;10999;51.332;9.458;2023-02-24T03:12:21;12.02;;;3.10;;
21675;SDS011;10999;51.332;9.458;2023-02-24T03:14:55;15.88;;;4.45;;
21675;SDS011;10999;51.332;9.458;2023-02-24T03:17:26;16.90;;;3.78;;
21675;SDS011;10999;51.332;9.458;2023-02-24T03:20:00;13.13;;;4.05;;
21675;SDS011;10999;51.332;9.458;2023-02-24T03:22:45;14.52;;;3.08;;
21675;SDS011;10999;51.332;9.458;2023-02-24T03:25:19;15.30;;;3.45;;
21675;SDS011;10999;51.332;9.458;2023-02-24T03:27:59;18.42;;;3.90;;
21675;SDS011;10999;51.332;9.458;2023-02-24T03:30:33;11.50;;;3.08;;
21675;SDS011;10999;51.332;9.458;2023-02-24T03:33:12;12.85;;;3.85;;
21675;SDS011;10999;51.332;9.458;2023-02-24T03:36:06;15.27;;;5.22;;
21675;SDS011;10999;51.332;9.458;2023-02-24T03:38:33;16.23;;;4.40;;
21675;SDS011;10999;51.332;9.458;2023-02-24T03:41:03;14.82;;;4.57;;
21675;SDS011;10999;51.332;9.458;2023-02-24T03:43:40;12.43;;;3.97;;
21675;SDS011;10999;51.332;9.458;2023-02-24T03:46:13;18.70;;;4.28;;
21675;SDS011;10999;51.332;9.458;2023-02-24T03:48:44;13.13;;;3.90;;
21675;SDS011;10999;51.332;9.458;2023-02-24T03:51:16;13.15;;;4.03;;
21675;SDS011;10999;51.332;9.458;2023-02-24T03:54:01;13.10;;;3.38;;
21675;SDS011;10999;51.332;9.458;2023-02-24T04:04:47;13.95;;;3.78;;
21675;SDS011;10999;51.332;9.458;2023-02-24T04:15:40;15.00;;;4.45;;
21675;SDS011;10999;51.332;9.458;2023-02-24T04:18:13;12.77;;;3.80;;
21675;SDS011;10999;51.332;9.458;2023-02-24T04:20:46;15.70;;;4.70;;
21675;SDS011;10999;51.332;9.458;2023-02-24T04:23:19;21.60;;;6.15;;
21675;SDS011;10999;51.332;9.458;2023-02-24T04:25:50;15.70;;;5.00;;
21675;SDS011;10999;51.332;9.458;2023-02-24T04:28:21;14.65;;;3.78;;
21675;SDS011;10999;51.332;9.458;2023-02-24T04:30:50;15.38;;;3.67;;
21675;SDS011;10999;51.332;9.458;2023-02-24T04:33:20;15.60;;;4.30;;
21675;SDS011;10999;51.332;9.458;2023-02-24T04:35:47;15.80;;;4.63;;
21675;SDS011;10999;51.332;9.458;2023-02-24T04:38:16;16.30;;;4.00;;
21675;SDS011;10999;51.332;9.458;2023-02-24T04:40:43;16.40;;;3.72;;
21675;SDS011;10999;51.332;9.458;2023-02-24T04:43:10;11.98;;;3.45;;
21675;SDS011;10999;51.332;9.458;2023-02-24T04:45:38;12.40;;;3.50;;
21675;SDS011;10999;51.332;9.458;2023-02-24T04:48:05;17.10;;;3.50;;
21675;SDS011;10999;51.332;9.458;2023-02-24T04:50:38;10.70;;;3.70;;
21675;SDS011;10999;51.332;9.458;2023-02-24T04:53:14;14.70;;;3.22;;
21675;SDS011;10999;51.332;9.458;2023-02-24T04:55:42;14.85;;;3.33;;
21675;SDS011;10999;51.332;9.458;2023-02-24T04:58:15;11.48;;;3.92;;
21675;SDS011;10999;51.332;9.458;2023-02-24T05:00:45;12.68;;;3.03;;
21675;SDS011;10999;51.332;9.458;2023-02-24T05:03:14;16.65;;;3.33;;
21675;SDS011;10999;51.332;9.458;2023-02-24T05:05:49;11.43;;;2.80;;
21675;SDS011;10999;51.332;9.458;2023-02-24T05:08:17;13.23;;;2.85;;
21675;SDS011;10999;51.332;9.458;2023-02-24T05:10:45;10.70;;;3.40;;
21675;SDS011;10999;51.332;9.458;2023-02-24T05:13:13;13.73;;;3.53;;
21675;SDS011;10999;51.332;9.458;2023-02-24T05:15:55;12.63;;;3.25;;
21675;SDS011;10999;51.332;9.458;2023-02-24T05:18:29;8.95;;;3.05;;
21675;SDS011;10999;51.332;9.458;2023-02-24T05:21:06;9.13;;;2.78;;
21675;SDS011;10999;51.332;9.458;2023-02-24T05:23:56;8.93;;;2.97;;
21675;SDS011;10999;51.332;9.458;2023-02-24T05:26:24;12.23;;;3.03;;
21675;SDS011;10999;51.332;9.458;2023-02-24T05:28:52;14.43;;;2.97;;
21675;SDS011;10999;51.332;9.458;2023-02-24T05:31:22;10.52;;;3.00;;
21675;SDS011;10999;51.332;9.458;2023-02-24T05:36:25;9.95;;;2.75;;
21675;SDS011;10999;51.332;9.458;2023-02-24T05:38:54;12.15;;;2.72;;
21675;SDS011;10999;51.332;9.458;2023-02-24T05:41:35;11.05;;;2.90;;
21675;SDS011;10999;51.332;9.458;2023-02-24T05:44:05;12.40;;;3.10;;
21675;SDS011;10999;51.332;9.458;2023-02-24T05:46:36;16.05;;;3.75;;
21675;SDS011;10999;51.332;9.458;2023-02-24T05:49:13;12.52;;;2.88;;
21675;SDS011;10999;51.332;9.458;2023-02-24T05:51:45;13.48;;;3.10;;
21675;SDS011;10999;51.332;9.458;2023-02-24T05:54:23;10.18;;;2.42;;
21675;SDS011;10999;51.332;9.458;2023-02-24T05:56:57;14.98;;;3.88;;
21675;SDS011;10999;51.332;9.458;2023-02-24T05:59:25;13.15;;;3.20;;
21675;SDS011;10999;51.332;9.458;2023-02-24T06:02:02;17.25;;;3.28;;
21675;SDS011;10999;51.332;9.458;2023-02-24T06:04:33;11.93;;;3.20;;
21675;SDS011;10999;51.332;9.458;2023-02-24T06:07:11;16.95;;;4.22;;
21675;SDS011;10999;51.332;9.458;2023-02-24T06:09:48;15.13;;;4.20;;
21675;SDS011;10999;51.332;9.458;2023-02-24T06:12:26;15.63;;;3.70;;
21675;SDS011;10999;51.332;9.458;2023-02-24T06:14:59;14.77;;;3.90;;
21675;SDS011;10999;51.332;9.458;2023-02-24T06:17:27;14.52;;;3.63;;
21675;SDS011;10999;51.332;9.458;2023-02-24T06:19:53;15.80;;;3.33;;
21675;SDS011;10999;51.332;9.458;2023-02-24T06:22:21;14.68;;;3.75;;
21675;SDS011;10999;51.332;9.458;2023-02-24T06:24:49;12.60;;;3.78;;
21675;SDS011;10999;51.332;9.458;2023-02-24T06:27:19;17.77;;;3.92;;
21675;SDS011;10999;51.332;9.458;2023-02-24T06:29:48;22.85;;;4.70;;
21675;SDS011;10999;51.332;9.458;2023-02-24T06:32:20;18.02;;;4.10;;
21675;SDS011;10999;51.332;9.458;2023-02-24T06:34:50;14.18;;;3.80;;
21675;SDS011;10999;51.332;9.458;2023-02-24T06:37:17;16.85;;;4.53;;
21675;SDS011;10999;51.332;9.458;2023-02-24T06:39:44;12.73;;;3.65;;
21675;SDS011;10999;51.332;9.458;2023-02-24T06:42:11;20.42;;;4.38;;
21675;SDS011;10999;51.332;9.458;2023-02-24T06:44:39;16.30;;;4.00;;
21675;SDS011;10999;51.332;9.458;2023-02-24T06:47:07;13.05;;;4.30;;
21675;SDS011;10999;51.332;9.458;2023-02-24T06:49:35;15.00;;;3.70;;
21675;SDS011;10999;51.332;9.458;2023-02-24T06:52:02;14.35;;;3.83;;
21675;SDS011;10999;51.332;9.458;2023-02-24T06:54:30;14.82;;;4.05;;
21675;SDS011;10999;51.332;9.458;2023-02-24T06:57:01;14.98;;;4.00;;
21675;SDS011;10999;51.332;9.458;2023-02-24T06:59:28;20.52;;;4.22;;
21675;SDS011;10999;51.332;9.458;2023-02-24T07:01:55;19.40;;;4.72;;
21675;SDS011;10999;51.332;9.458;2023-02-24T07:04:23;13.68;;;3.75;;
21675;SDS011;10999;51.332;9.458;2023-02-24T07:06:55;14.38;;;3.83;;
21675;SDS011;10999;51.332;9.458;2023-02-24T07:09:27;17.83;;;4.00;;
21675;SDS011;10999;51.332;9.458;2023-02-24T07:11:55;19.80;;;4.13;;
21675;SDS011;10999;51.332;9.458;2023-02-24T07:14:24;15.18;;;4.30;;
21675;SDS011;10999;51.332;9.458;2023-02-24T07:16:52;17.42;;;3.88;;
21675;SDS011;10999;51.332;9.458;2023-02-24T07:19:24;12.85;;;3.42;;
21675;SDS011;10999;51.332;9.458;2023-02-24T07:21:56;27.83;;;4.32;;
21675;SDS011;10999;51.332;9.458;2023-02-24T07:24:32;14.70;;;4.68;;
21675;SDS011;10999;51.332;9.458;2023-02-24T07:27:05;15.65;;;4.10;;
21675;SDS011;10999;51.332;9.458;2023-02-24T07:29:33;14.18;;;4.25;;
21675;SDS011;10999;51.332;9.458;2023-02-24T07:32:02;20.10;;;4.97;;
21675;SDS011;10999;51.332;9.458;2023-02-24T07:34:31;24.08;;;5.13;;
21675;SDS011;10999;51.332;9.458;2023-02-24T07:36:59;16.00;;;3.85;;
21675;SDS011;10999;51.332;9.458;2023-02-24T07:39:27;16.92;;;4.47;;
21675;SDS011;10999;51.332;9.458;2023-02-24T07:41:54;26.48;;;5.20;;
21675;SDS011;10999;51.332;9.458;2023-02-24T07:44:22;17.73;;;3.70;;
21675;SDS011;10999;51.332;9.458;2023-02-24T07:46:49;14.43;;;4.00;;
21675;SDS011;10999;51.332;9.458;2023-02-24T07:49:18;15.45;;;3.17;;
21675;SDS011;10999;51.332;9.458;2023-02-24T07:51:49;14.50;;;3.53;;
21675;SDS011;10999;51.332;9.458;2023-02-24T07:54:18;14.43;;;3.50;;
21675;SDS011;10999;51.332;9.458;2023-02-24T07:56:46;14.90;;;3.40;;
21675;SDS011;10999;51.332;9.458;2023-02-24T07:59:22;12.60;;;3.20;;
21675;SDS011;10999;51.332;9.458;2023-02-24T08:01:54;12.20;;;2.95;;
21675;SDS011;10999;51.332;9.458;2023-02-24T08:04:25;11.07;;;2.90;;
21675;SDS011;10999;51.332;9.458;2023-02-24T08:06:55;10.38;;;3.03;;
21675;SDS011;10999;51.332;9.458;2023-02-24T08:09:25;13.88;;;3.08;;
21675;SDS011;10999;51.332;9.458;2023-02-24T08:12:12;15.23;;;2.78;;
21675;SDS011;10999;51.332;9.458;2023-02-24T08:14:49;12.25;;;2.65;;
21675;SDS011;10999;51.332;9.458;2023-02-24T08:17:19;15.52;;;3.10;;
21675;SDS011;10999;51.332;9.458;2023-02-24T08:19:48;14.00;;;3.53;;
21675;SDS011;10999;51.332;9.458;2023-02-24T08:22:26;12.30;;;3.53;;
21675;SDS011;10999;51.332;9.458;2023-02-24T08:25:00;7.85;;;2.38;;
21675;SDS011;10999;51.332;9.458;2023-02-24T08:27:32;10.27;;;2.80;;
21675;SDS011;10999;51.332;9.458;2023-02-24T08:30:07;14.20;;;3.22;;
21675;SDS011;10999;51.332;9.458;2023-02-24T08:32:41;12.82;;;3.67;;
21675;SDS011;10999;51.332;9.458;2023-02-24T08:35:16;8.27;;;2.35;;
21675;SDS011;10999;51.332;9.458;2023-02-24T08:37:49;12.10;;;3.08;;
21675;SDS011;10999;51.332;9.458;2023-02-24T08:40:23;11.20;;;2.72;;
21675;SDS011;10999;51.332;9.458;2023-02-24T08:43:02;9.45;;;2.58;;
21675;SDS011;10999;51.332;9.458;2023-02-24T08:45:42;7.97;;;2.42;;
21675;SDS011;10999;51.332;9.458;2023-02-24T08:48:13;7.72;;;2.22;;
21675;SDS011;10999;51.332;9.458;2023-02-24T08:50:54;15.95;;;2.58;;
21675;SDS011;10999;51.332;9.458;2023-02-24T08:53:22;11.25;;;2.10;;
21675;SDS011;10999;51.332;9.458;2023-02-24T08:55:54;9.60;;;2.53;;
21675;SDS011;10999;51.332;9.458;2023-02-24T08:58:21;9.80;;;2.38;;
21675;SDS011;10999;51.332;9.458;2023-02-24T09:00:55;11.27;;;2.95;;
21675;SDS011;10999;51.332;9.458;2023-02-24T09:03:25;11.35;;;2.50;;
21675;SDS011;10999;51.332;9.458;2023-02-24T09:06:03;7.03;;;2.40;;
21675;SDS011;10999;51.332;9.458;2023-02-24T09:08:32;7.68;;;2.30;;
21675;SDS011;10999;51.332;9.458;2023-02-24T09:11:07;6.28;;;1.85;;
21675;SDS011;10999;51.332;9.458;2023-02-24T09:13:40;8.02;;;1.92;;
21675;SDS011;10999;51.332;9.458;2023-02-24T09:16:24;6.07;;;1.70;;
21675;SDS011;10999;51.332;9.458;2023-02-24T09:18:51;6.25;;;2.05;;
21675;SDS011;10999;51.332;9.458;2023-02-24T09:21:56;8.43;;;1.85;;
21675;SDS011;10999;51.332;9.458;2023-02-24T09:24:46;6.28;;;1.52;;
21675;SDS011;10999;51.332;9.458;2023-02-24T09:27:16;9.93;;;2.03;;
21675;SDS011;10999;51.332;9.458;2023-02-24T09:29:42;9.40;;;2.45;;
21675;SDS011;10999;51.332;9.458;2023-02-24T09:32:15;9.23;;;1.88;;
21675;SDS011;10999;51.332;9.458;2023-02-24T09:34:43;7.63;;;2.22;;
21675;SDS011;10999;51.332;9.458;2023-02-24T09:37:10;6.28;;;1.60;;
21675;SDS011;10999;51.332;9.458;2023-02-24T09:39:51;10.05;;;2.70;;
21675;SDS011;10999;51.332;9.458;2023-02-24T09:42:43;7.55;;;2.53;;
21675;SDS011;10999;51.332;9.458;2023-02-24T09:45:20;6.22;;;1.38;;
21675;SDS011;10999;51.332;9.458;2023-02-24T09:48:01;8.75;;;1.75;;
21675;SDS011;10999;51.332;9.458;2023-02-24T09:50:36;8.52;;;1.67;;
21675;SDS011;10999;51.332;9.458;2023-02-24T09:53:29;7.90;;;1.90;;
21675;SDS011;10999;51.332;9.458;2023-02-24T09:56:09;6.55;;;1.67;;
21675;SDS011;10999;51.332;9.458;2023-02-24T10:06:49;5.53;;;1.50;;
21675;SDS011;10999;51.332;9.458;2023-02-24T10:09:23;6.18;;;1.50;;
21675;SDS011;10999;51.332;9.458;2023-02-24T10:12:00;5.35;;;1.20;;
21675;SDS011;10999;51.332;9.458;2023-02-24T10:14:33;6.90;;;1.73;;
21675;SDS011;10999;51.332;9.458;2023-02-24T10:20:34;6.40;;;1.27;;
21675;SDS011;10999;51.332;9.458;2023-02-24T10:25:51;11.40;;;1.90;;
21675;SDS011;10999;51.332;9.458;2023-02-24T10:33:55;5.05;;;1.40;;
21675;SDS011;10999;51.332;9.458;2023-02-24T10:36:25;5.20;;;1.38;;
21675;SDS011;10999;51.332;9.458;2023-02-24T10:39:19;7.25;;;1.30;;
21675;SDS011;10999;51.332;9.458;2023-02-24T10:44:23;7.47;;;1.77;;
21675;SDS011;10999;51.332;9.458;2023-02-24T10:47:05;5.65;;;2.17;;
21675;SDS011;10999;51.332;9.458;2023-02-24T10:49:49;2.97;;;1.23;;
21675;SDS011;10999;51.332;9.458;2023-02-24T10:55:44;4.20;;;1.70;;
21675;SDS011;10999;51.332;9.458;2023-02-24T10:58:14;5.20;;;1.73;;
21675;SDS011;10999;51.332;9.458;2023-02-24T11:00:54;6.35;;;1.90;;
21675;SDS011;10999;51.332;9.458;2023-02-24T11:03:39;6.63;;;1.63;;
21675;SDS011;10999;51.332;9.458;2023-02-24T11:06:27;5.35;;;1.50;;
21675;SDS011;10999;51.332;9.458;2023-02-24T11:09:18;7.00;;;1.92;;
21675;SDS011;10999;51.332;9.458;2023-02-24T11:11:55;5.65;;;1.65;;
21675;SDS011;10999;51.332;9.458;2023-02-24T11:14:58;6.63;;;2.30;;
21675;SDS011;10999;51.332;9.458;2023-02-24T11:22:45;6.20;;;1.63;;
21675;SDS011;10999;51.332;9.458;2023-02-24T11:25:20;7.28;;;1.85;;
21675;SDS011;10999;51.332;9.458;2023-02-24T11:27:50;10.88;;;2.70;;
21675;SDS011;10999;51.332;9.458;2023-02-24T11:33:08;6.53;;;1.70;;
21675;SDS011;10999;51.332;9.458;2023-02-24T11:35:46;7.57;;;2.25;;
21675;SDS011;10999;51.332;9.458;2023-02-24T11:38:38;8.77;;;2.25;;
21675;SDS011;10999;51.332;9.458;2023-02-24T11:41:23;6.18;;;2.00;;
21675;SDS011;10999;51.332;9.458;2023-02-24T11:44:08;4.75;;;2.00;;
21675;SDS011;10999;51.332;9.458;2023-02-24T11:46:42;7.32;;;2.35;;
21675;SDS011;10999;51.332;9.458;2023-02-24T11:49:30;8.00;;;2.10;;
21675;SDS011;10999;51.332;9.458;2023-02-24T11:52:05;5.20;;;1.90;;
21675;SDS011;10999;51.332;9.458;2023-02-24T11:54:43;6.20;;;2.35;;
21675;SDS011;10999;51.332;9.458;2023-02-24T11:57:17;5.32;;;2.13;;
21675;SDS011;10999;51.332;9.458;2023-02-24T11:59:50;6.75;;;1.95;;
21675;SDS011;10999;51.332;9.458;2023-02-24T12:02:32;10.07;;;2.75;;
21675;SDS011;10999;51.332;9.458;2023-02-24T12:05:17;9.68;;;2.55;;
21675;SDS011;10999;51.332;9.458;2023-02-24T12:07:48;5.30;;;2.45;;
21675;SDS011;10999;51.332;9.458;2023-02-24T12:15:43;8.50;;;2.70;;
21675;SDS011;10999;51.332;9.458;2023-02-24T12:18:33;10.45;;;3.40;;
21675;SDS011;10999;51.332;9.458;2023-02-24T12:21:10;9.10;;;2.88;;
21675;SDS011;10999;51.332;9.458;2023-02-24T12:23:55;7.40;;;2.90;;
21675;SDS011;10999;51.332;9.458;2023-02-24T12:26:30;12.00;;;3.60;;
21675;SDS011;10999;51.332;9.458;2023-02-24T12:48:48;8.68;;;3.00;;
21675;SDS011;10999;51.332;9.458;2023-02-24T12:54:06;11.48;;;3.45;;
21675;SDS011;10999;51.332;9.458;2023-02-24T12:59:21;9.85;;;3.33;;
21675;SDS011;10999;51.332;9.458;2023-02-24T13:01:58;11.00;;;4.00;;
21675;SDS011;10999;51.332;9.458;2023-02-24T13:09:54;11.15;;;3.58;;
21675;SDS011;10999;51.332;9.458;2023-02-24T13:12:40;10.52;;;4.20;;
21675;SDS011;10999;51.332;9.458;2023-02-24T13:15:22;8.35;;;3.10;;
21675;SDS011;10999;51.332;9.458;2023-02-24T13:17:52;10.98;;;3.35;;
21675;SDS011;10999;51.332;9.458;2023-02-24T13:22:58;9.77;;;4.05;;
21675;SDS011;10999;51.332;9.458;2023-02-24T13:25:33;7.93;;;3.33;;
21675;SDS011;10999;51.332;9.458;2023-02-24T13:28:17;9.75;;;3.85;;
21675;SDS011;10999;51.332;9.458;2023-02-24T13:30:46;9.25;;;3.92;;
21675;SDS011;10999;51.332;9.458;2023-02-24T13:33:27;14.07;;;3.60;;
21675;SDS011;10999;51.332;9.458;2023-02-24T13:36:15;6.93;;;2.70;;
21675;SDS011;10999;51.332;9.458;2023-02-24T13:44:01;9.60;;;3.25;;
21675;SDS011;10999;51.332;9.458;2023-02-24T14:01:30;20.27;;;4.20;;
21675;SDS011;10999;51.332;9.458;2023-02-24T14:04:17;12.38;;;4.20;;
21675;SDS011;10999;51.332;9.458;2023-02-24T14:06:48;11.68;;;3.88;;
21675;SDS011;10999;51.332;9.458;2023-02-24T14:09:24;12.70;;;3.88;;
21675;SDS011;10999;51.332;9.458;2023-02-24T14:11:59;13.25;;;5.05;;
21675;SDS011;10999;51.332;9.458;2023-02-24T14:14:29;10.52;;;3.60;;
21675;SDS011;10999;51.332;9.458;2023-02-24T14:16:56;11.15;;;3.83;;
21675;SDS011;10999;51.332;9.458;2023-02-24T14:19:23;11.60;;;4.28;;
21675;SDS011;10999;51.332;9.458;2023-02-24T14:21:55;11.02;;;3.30;;
21675;SDS011;10999;51.332;9.458;2023-02-24T14:24:25;9.75;;;4.22;;
21675;SDS011;10999;51.332;9.458;2023-02-24T14:26:53;14.23;;;4.07;;
21675;SDS011;10999;51.332;9.458;2023-02-24T14:29:24;16.60;;;5.32;;
21675;SDS011;10999;51.332;9.458;2023-02-24T14:31:53;12.15;;;5.03;;
21675;SDS011;10999;51.332;9.458;2023-02-24T14:34:23;10.68;;;4.30;;
21675;SDS011;10999;51.332;9.458;2023-02-24T14:36:58;13.15;;;4.65;;
21675;SDS011;10999;51.332;9.458;2023-02-24T14:39:28;12.93;;;4.57;;
21675;SDS011;10999;51.332;9.458;2023-02-24T14:44:33;12.20;;;4.53;;
21675;SDS011;10999;51.332;9.458;2023-02-24T14:47:08;13.52;;;5.07;;
21675;SDS011;10999;51.332;9.458;2023-02-24T14:49:37;10.30;;;4.32;;
21675;SDS011;10999;51.332;9.458;2023-02-24T14:52:14;13.30;;;4.50;;
21675;SDS011;10999;51.332;9.458;2023-02-24T14:57:27;8.43;;;3.95;;
21675;SDS011;10999;51.332;9.458;2023-02-24T15:00:01;13.85;;;4.90;;
21675;SDS011;10999;51.332;9.458;2023-02-24T15:02:43;12.13;;;4.30;;
21675;SDS011;10999;51.332;9.458;2023-02-24T15:07:45;12.13;;;4.00;;
21675;SDS011;10999;51.332;9.458;2023-02-24T15:10:19;11.38;;;4.80;;
21675;SDS011;10999;51.332;9.458;2023-02-24T15:12:55;13.93;;;4.85;;
21675;SDS011;10999;51.332;9.458;2023-02-24T15:15:27;13.20;;;5.05;;
21675;SDS011;10999;51.332;9.458;2023-02-24T15:17:57;14.27;;;5.05;;
21675;SDS011;10999;51.332;9.458;2023-02-24T15:20:33;12.85;;;4.68;;
21675;SDS011;10999;51.332;9.458;2023-02-24T15:23:02;13.02;;;5.15;;
21675;SDS011;10999;51.332;9.458;2023-02-24T15:25:40;11.70;;;5.70;;
21675;SDS011;10999;51.332;9.458;2023-02-24T15:28:29;14.05;;;5.57;;
21675;SDS011;10999;51.332;9.458;2023-02-24T15:30:59;13.80;;;5.55;;
21675;SDS011;10999;51.332;9.458;2023-02-24T15:33:35;15.32;;;5.95;;
21675;SDS011;10999;51.332;9.458;2023-02-24T15:36:09;10.88;;;4.72;;
21675;SDS011;10999;51.332;9.458;2023-02-24T15:38:50;10.90;;;4.63;;
21675;SDS011;10999;51.332;9.458;2023-02-24T15:41:19;8.77;;;3.88;;
21675;SDS011;10999;51.332;9.458;2023-02-24T15:43:46;6.82;;;3.00;;
21675;SDS011;10999;51.332;9.458;2023-02-24T15:48:57;13.02;;;3.65;;
21675;SDS011;10999;51.332;9.458;2023-02-24T15:51:43;7.45;;;2.90;;
21675;SDS011;10999;51.332;9.458;2023-02-24T15:54:21;7.05;;;3.13;;
21675;SDS011;10999;51.332;9.458;2023-02-24T15:56:52;6.20;;;2.85;;
21675;SDS011;10999;51.332;9.458;2023-02-24T15:59:18;7.78;;;2.83;;
21675;SDS011;10999;51.332;9.458;2023-02-24T16:01:47;6.32;;;2.60;;
21675;SDS011;10999;51.332;9.458;2023-02-24T16:04:14;6.88;;;2.72;;
21675;SDS011;10999;51.332;9.458;2023-02-24T16:06:40;6.35;;;2.80;;
21675;SDS011;10999;51.332;9.458;2023-02-24T16:09:25;7.35;;;2.92;;
21675;SDS011;10999;51.332;9.458;2023-02-24T16:12:02;6.50;;;2.70;;
21675;SDS011;10999;51.332;9.458;2023-02-24T16:14:35;5.80;;;2.40;;
21675;SDS011;10999;51.332;9.458;2023-02-24T16:17:03;6.82;;;3.00;;
21675;SDS011;10999;51.332;9.458;2023-02-24T16:19:34;6.82;;;3.00;;
21675;SDS011;10999;51.332;9.458;2023-02-24T16:22:02;9.13;;;3.22;;
21675;SDS011;10999;51.332;9.458;2023-02-24T16:24:28;7.40;;;3.10;;
21675;SDS011;10999;51.332;9.458;2023-02-24T16:26:55;8.30;;;2.97;;
21675;SDS011;10999;51.332;9.458;2023-02-24T16:29:22;9.93;;;3.03;;
21675;SDS011;10999;51.332;9.458;2023-02-24T16:31:48;10.63;;;3.15;;
21675;SDS011;10999;51.332;9.458;2023-02-24T16:34:15;8.82;;;2.90;;
21675;SDS011;10999;51.332;9.458;2023-02-24T16:36:42;6.88;;;3.33;;
21675;SDS011;10999;51.332;9.458;2023-02-24T16:39:10;6.07;;;2.50;;
21675;SDS011;10999;51.332;9.458;2023-02-24T16:41:38;7.47;;;2.78;;
21675;SDS011;10999;51.332;9.458;2023-02-24T16:44:05;8.48;;;3.53;;
21675;SDS011;10999;51.332;9.458;2023-02-24T16:46:34;7.72;;;2.85;;
21675;SDS011;10999;51.332;9.458;2023-02-24T16:49:07;9.73;;;3.42;;
21675;SDS011;10999;51.332;9.458;2023-02-24T16:51:35;9.57;;;3.45;;
21675;SDS011;10999;51.332;9.458;2023-02-24T16:54:04;6.80;;;3.05;;
21675;SDS011;10999;51.332;9.458;2023-02-24T16:56:30;7.50;;;2.95;;
21675;SDS011;10999;51.332;9.458;2023-02-24T16:58:57;7.20;;;2.97;;
21675;SDS011;10999;51.332;9.458;2023-02-24T17:01:24;9.60;;;3.40;;
21675;SDS011;10999;51.332;9.458;2023-02-24T17:03:51;8.30;;;3.00;;
21675;SDS011;10999;51.332;9.458;2023-02-24T17:06:19;8.93;;;3.20;;
21675;SDS011;10999;51.332;9.458;2023-02-24T17:08:48;9.23;;;3.40;;
21675;SDS011;10999;51.332;9.458;2023-02-24T17:11:17;6.85;;;3.00;;
21675;SDS011;10999;51.332;9.458;2023-02-24T17:13:44;9.15;;;3.35;;
21675;SDS011;10999;51.332;9.458;2023-02-24T17:16:11;8.80;;;3.38;;
21675;SDS011;10999;51.332;9.458;2023-02-24T17:18:38;7.35;;;3.17;;
21675;SDS011;10999;51.332;9.458;2023-02-24T17:21:04;9.32;;;3.53;;
21675;SDS011;10999;51.332;9.458;2023-02-24T17:23:31;8.93;;;3.00;;
21675;SDS011;10999;51.332;9.458;2023-02-24T17:25:59;9.30;;;3.65;;
21675;SDS011;10999;51.332;9.458;2023-02-24T17:28:26;11.73;;;3.60;;
21675;SDS011;10999;51.332;9.458;2023-02-24T17:30:53;12.40;;;4.55;;
21675;SDS011;10999;51.332;9.458;2023-02-24T17:33:20;10.68;;;3.78;;
21675;SDS011;10999;51.332;9.458;2023-02-24T17:35:47;9.38;;;3.40;;
21675;SDS011;10999;51.332;9.458;2023-02-24T17:38:14;8.88;;;3.80;;
21675;SDS011;10999;51.332;9.458;2023-02-24T17:40:46;10.73;;;3.58;;